Time;durP1;ratioP1;P1;durP2;ratioP2;P2;SDS_P1;SDS_P2;PMS_P1;PMS_P2;Temp;Humidity;BMP_temperature;BMP_pressure;BME280_temperature;BME280_humidity;BME280_pressure;Samples;Min_cycle;Max_cycle;Signal;HPM_P1;HPM_P2
2022/11/24 00:02:48;;;;;;;32.45;15.60;;;;;;;;;;10446327;28;20064;-83
2022/11/24 00:07:51;;;;;;;30.77;16.20;;;;;;;;;;10446662;28;20489;-79
2022/11/24 00:12:51;;;;;;;28.50;16.38;;;;;;;;;;10445207;28;20044;-80
2022/11/24 00:17:52;;;;;;;28.00;16.05;;;;;;;;;;10450832;28;20044;-80
2022/11/24 00:22:52;;;;;;;32.90;17.10;;;;;;;;;;10429395;28;20037;-80
2022/11/24 00:27:52;;;;;;;29.08;15.25;;;;;;;;;;10442521;28;20112;-81
2022/11/24 00:32:55;;;;;;;29.15;16.90;;;;;;;;;;10464471;28;20053;-80
2022/11/24 00:37:56;;;;;;;27.63;15.38;;;;;;;;;;10449942;28;20133;-79
2022/11/24 00:42:57;;;;;;;23.02;13.63;;;;;;;;;;10480665;28;20068;-78
2022/11/24 00:47:57;;;;;;;22.23;12.77;;;;;;;;;;10464191;28;20179;-78
2022/11/24 00:52:57;;;;;;;20.07;11.63;;;;;;;;;;10449041;28;20307;-80
2022/11/24 00:58:01;;;;;;;17.02;10.93;;;;;;;;;;10446840;28;20275;-79
2022/11/24 01:03:01;;;;;;;15.38;8.70;;;;;;;;;;10436895;28;20045;-80
2022/11/24 01:08:02;;;;;;;17.73;8.70;;;;;;;;;;10455819;28;20566;-79
2022/11/24 01:13:03;;;;;;;14.48;8.88;;;;;;;;;;10449275;28;20314;-79
2022/11/24 01:18:06;;;;;;;16.85;8.10;;;;;;;;;;10458435;28;20039;-78
2022/11/24 01:23:07;;;;;;;14.68;7.28;;;;;;;;;;10481975;28;20017;-78
2022/11/24 01:28:07;;;;;;;12.27;6.85;;;;;;;;;;10500809;28;20080;-78
2022/11/24 01:33:07;;;;;;;15.07;6.50;;;;;;;;;;10498692;28;20040;-77
2022/11/24 01:38:09;;;;;;;12.80;5.80;;;;;;;;;;10496618;28;20104;-79
2022/11/24 01:43:14;;;;;;;12.43;6.53;;;;;;;;;;10475050;28;20291;-81
2022/11/24 01:48:19;;;;;;;10.70;5.43;;;;;;;;;;10457074;28;20039;-80
2022/11/24 01:53:21;;;;;;;9.52;5.60;;;;;;;;;;10440689;28;20052;-78
2022/11/24 01:58:24;;;;;;;12.32;5.00;;;;;;;;;;10445107;28;20544;-77
2022/11/24 02:03:27;;;;;;;10.55;5.10;;;;;;;;;;10443141;28;20079;-76
2022/11/24 02:08:31;;;;;;;8.85;4.82;;;;;;;;;;10445400;28;20033;-79
2022/11/24 02:13:36;;;;;;;10.98;5.10;;;;;;;;;;10426142;28;20044;-76
2022/11/24 02:18:37;;;;;;;8.13;4.88;;;;;;;;;;10422454;28;20033;-77
2022/11/24 02:23:48;;;;;;;8.82;5.38;;;;;;;;;;10423600;28;20033;-76
2022/11/24 02:28:48;;;;;;;9.38;4.75;;;;;;;;;;10429859;28;20037;-77
2022/11/24 02:33:49;;;;;;;11.25;4.60;;;;;;;;;;10424012;28;20078;-77
2022/11/24 02:38:49;;;;;;;11.48;5.47;;;;;;;;;;10437189;28;20134;-79
2022/11/24 02:43:54;;;;;;;11.95;5.00;;;;;;;;;;10426285;28;20037;-77
2022/11/24 02:48:56;;;;;;;11.70;4.63;;;;;;;;;;10438303;28;20107;-77
2022/11/24 02:53:57;;;;;;;10.73;4.78;;;;;;;;;;10411102;28;20049;-78
2022/11/24 02:58:58;;;;;;;13.98;5.35;;;;;;;;;;10425651;28;20156;-78
2022/11/24 03:03:58;;;;;;;8.15;4.20;;;;;;;;;;10449320;28;20110;-79
2022/11/24 03:08:58;;;;;;;12.00;4.47;;;;;;;;;;10492746;28;20133;-77
2022/11/24 03:14:01;;;;;;;11.55;4.10;;;;;;;;;;10468645;28;20295;-76
2022/11/24 03:19:05;;;;;;;11.02;4.07;;;;;;;;;;10447890;28;20163;-78
2022/11/24 03:24:06;;;;;;;;;;;;;;;;;;10417375;22;20076;-78
2022/11/24 03:29:08;;;;;;;10.65;4.47;;;;;;;;;;10402579;28;19914;-78
2022/11/24 03:34:09;;;;;;;8.43;3.78;;;;;;;;;;10405380;28;20053;-78
2022/11/24 03:39:09;;;;;;;14.07;4.90;;;;;;;;;;10408535;28;20030;-78
2022/11/24 03:44:11;;;;;;;10.75;4.18;;;;;;;;;;10423120;28;20033;-80
2022/11/24 03:49:11;;;;;;;11.77;4.03;;;;;;;;;;10424123;28;20037;-83
2022/11/24 03:54:15;;;;;;;14.57;4.80;;;;;;;;;;10474085;28;20327;-81
2022/11/24 03:59:15;;;;;;;14.88;4.78;;;;;;;;;;10463980;28;20296;-80
2022/11/24 04:04:16;;;;;;;16.30;4.70;;;;;;;;;;10465056;28;20089;-82
2022/11/24 04:09:17;;;;;;;14.13;4.73;;;;;;;;;;10416938;28;20108;-82
2022/11/24 04:14:20;;;;;;;12.57;4.60;;;;;;;;;;10388457;28;20045;-79
2022/11/24 04:19:22;;;;;;;12.75;5.00;;;;;;;;;;10410672;28;20088;-81
2022/11/24 04:24:22;;;;;;;12.50;5.03;;;;;;;;;;10450310;28;20079;-80
2022/11/24 04:29:23;;;;;;;13.30;4.20;;;;;;;;;;10450145;28;20288;-80
2022/11/24 04:34:23;;;;;;;12.03;4.27;;;;;;;;;;10432234;28;20029;-80
2022/11/24 04:39:24;;;;;;;15.02;5.22;;;;;;;;;;10444040;28;20377;-79
2022/11/24 04:44:26;;;;;;;9.90;3.83;;;;;;;;;;10450124;28;20116;-81
2022/11/24 04:49:27;;;;;;;16.57;5.57;;;;;;;;;;10425887;28;20120;-80
2022/11/24 04:54:32;;;;;;;14.70;5.53;;;;;;;;;;10449803;28;20891;-78
2022/11/24 04:59:34;;;;;;;12.00;4.40;;;;;;;;;;10462180;28;20044;-77
2022/11/24 05:04:34;;;;;;;10.00;4.68;;;;;;;;;;10428738;28;20390;-79
2022/11/24 05:10:33;;;;;;;12.38;4.57;;;;;;;;;;10470075;28;20017;-78
2022/11/24 05:14:56;;;;;;;11.05;4.15;;;;;;;;;;10489718;28;20108;-78
2022/11/24 05:19:58;;;;;;;9.75;4.20;;;;;;;;;;10456010;28;20033;-80
2022/11/24 05:24:59;;;;;;;13.63;4.53;;;;;;;;;;10500452;28;20017;-80
2022/11/24 05:29:59;;;;;;;12.05;4.25;;;;;;;;;;10483673;28;20044;-80
2022/11/24 05:35:01;;;;;;;10.30;4.55;;;;;;;;;;10497628;28;20032;-79
2022/11/24 05:40:01;;;;;;;14.57;4.72;;;;;;;;;;10470198;28;20108;-80
2022/11/24 05:45:02;;;;;;;13.13;4.25;;;;;;;;;;10438260;28;20230;-78
2022/11/24 05:50:04;;;;;;;12.02;4.18;;;;;;;;;;10443038;28;20033;-80
2022/11/24 05:55:05;;;;;;;8.45;4.00;;;;;;;;;;10423728;28;20489;-79
2022/11/24 06:00:08;;;;;;;13.25;3.78;;;;;;;;;;10439612;28;20029;-80
2022/11/24 06:05:14;;;;;;;9.02;3.33;;;;;;;;;;10427422;28;20554;-78
2022/11/24 06:10:15;;;;;;;13.67;4.97;;;;;;;;;;10445050;28;20127;-77
2022/11/24 06:15:19;;;;;;;6.88;3.97;;;;;;;;;;10428015;28;20324;-78
2022/11/24 06:20:19;;;;;;;13.90;4.32;;;;;;;;;;10468650;28;20045;-81
2022/11/24 06:25:19;;;;;;;9.77;3.63;;;;;;;;;;10478671;28;20040;-76
2022/11/24 06:30:20;;;;;;;11.27;3.55;;;;;;;;;;10494615;28;20284;-76
2022/11/24 06:35:23;;;;;;;14.02;4.28;;;;;;;;;;10449870;28;20092;-79
2022/11/24 06:40:23;;;;;;;10.55;3.95;;;;;;;;;;10441531;28;20092;-81
2022/11/24 06:45:25;;;;;;;15.30;4.70;;;;;;;;;;10458345;28;20033;-80
2022/11/24 06:50:25;;;;;;;15.38;4.95;;;;;;;;;;10430264;28;20299;-78
2022/11/24 06:55:27;;;;;;;16.10;5.97;;;;;;;;;;10450330;28;20065;-79
2022/11/24 07:00:30;;;;;;;9.70;4.88;;;;;;;;;;10442185;28;20041;-80
2022/11/24 07:05:31;;;;;;;15.07;5.07;;;;;;;;;;10438611;28;20041;-79
2022/11/24 07:10:32;;;;;;;13.93;5.47;;;;;;;;;;10440789;28;20106;-80
2022/11/24 07:15:33;;;;;;;14.57;5.53;;;;;;;;;;10448260;28;20049;-79
2022/11/24 07:20:34;;;;;;;13.18;5.07;;;;;;;;;;10424980;28;20086;-79
2022/11/24 07:25:34;;;;;;;13.63;4.65;;;;;;;;;;10438376;28;20365;-78
2022/11/24 07:30:37;;;;;;;9.27;4.10;;;;;;;;;;10423266;28;20064;-79
2022/11/24 07:35:39;;;;;;;9.32;4.43;;;;;;;;;;10442244;28;20056;-78
2022/11/24 07:40:39;;;;;;;13.50;5.22;;;;;;;;;;10451498;28;20033;-79
2022/11/24 07:45:41;;;;;;;11.70;4.75;;;;;;;;;;10434832;28;20076;-80
2022/11/24 07:50:41;;;;;;;13.85;4.80;;;;;;;;;;10464940;28;20033;-82
2022/11/24 07:55:42;;;;;;;8.18;3.90;;;;;;;;;;10482780;28;20037;-79
2022/11/24 08:00:44;;;;;;;9.52;3.30;;;;;;;;;;10483977;28;20063;-80
2022/11/24 08:05:54;;;;;;;8.68;3.08;;;;;;;;;;10416130;28;20071;-80
2022/11/24 08:10:54;;;;;;;8.07;3.10;;;;;;;;;;10446563;28;20392;-80
2022/11/24 08:15:55;;;;;;;9.85;3.40;;;;;;;;;;10459165;28;20682;-79
2022/11/24 08:20:56;;;;;;;10.13;3.22;;;;;;;;;;10425980;28;20055;-78
2022/11/24 08:26:03;;;;;;;8.45;2.88;;;;;;;;;;10460508;28;20049;-79
2022/11/24 08:31:11;;;;;;;5.75;2.33;;;;;;;;;;10460311;28;20057;-80
2022/11/24 08:36:13;;;;;;;4.88;2.00;;;;;;;;;;10462324;28;20060;-82
2022/11/24 08:41:15;;;;;;;5.70;2.20;;;;;;;;;;10449147;28;20039;-79
2022/11/24 08:46:17;;;;;;;7.95;3.05;;;;;;;;;;10456214;28;20037;-81
2022/11/24 08:51:19;;;;;;;6.90;2.40;;;;;;;;;;10483743;28;20017;-80
2022/11/24 08:56:21;;;;;;;9.40;2.47;;;;;;;;;;10505275;28;20043;-79
2022/11/24 09:01:21;;;;;;;10.95;2.55;;;;;;;;;;10502817;28;20283;-80
2022/11/24 09:06:25;;;;;;;7.32;3.25;;;;;;;;;;10506013;28;20028;-79
2022/11/24 09:11:26;;;;;;;7.70;2.78;;;;;;;;;;10498556;28;20048;-80
2022/11/24 09:16:35;;;;;;;5.35;2.10;;;;;;;;;;10482084;28;20076;-80
2022/11/24 09:21:37;;;;;;;6.10;2.00;;;;;;;;;;10448019;28;20482;-80
2022/11/24 09:26:38;;;;;;;8.00;2.53;;;;;;;;;;10449201;28;20518;-82
2022/11/24 09:31:40;;;;;;;7.68;2.28;;;;;;;;;;10454226;28;20048;-80
2022/11/24 09:36:45;;;;;;;8.68;1.90;;;;;;;;;;10449544;28;20575;-81
2022/11/24 09:41:49;;;;;;;6.40;2.58;;;;;;;;;;10451163;28;20045;-79
2022/11/24 09:46:49;;;;;;;;;;;;;;;;;;10459732;28;20071;-80
2022/11/24 09:51:51;;;;;;;4.10;2.10;;;;;;;;;;10434748;28;19924;-80
2022/11/24 09:56:51;;;;;;;8.07;2.42;;;;;;;;;;10453597;28;20908;-80
2022/11/24 10:01:52;;;;;;;7.35;1.85;;;;;;;;;;10436541;28;20040;-80
2022/11/24 10:07:05;;;;;;;3.85;1.75;;;;;;;;;;10461824;28;20037;-81
2022/11/24 10:12:22;;;;;;;5.72;2.53;;;;;;;;;;10469623;28;20025;-83
2022/11/24 10:17:45;;;;;;;4.20;2.17;;;;;;;;;;10506217;28;20055;-80
2022/11/24 10:23:01;;;;;;;3.55;1.67;;;;;;;;;;10468951;28;20041;-80
2022/11/24 10:28:02;;;;;;;5.97;2.28;;;;;;;;;;10443686;28;20041;-83
2022/11/24 10:33:23;;;;;;;4.80;2.08;;;;;;;;;;10439137;28;20044;-86
2022/11/24 10:38:29;;;;;;;6.13;2.20;;;;;;;;;;10429073;28;20049;-81
2022/11/24 10:43:31;;;;;;;6.25;2.10;;;;;;;;;;10435103;28;20033;-80
2022/11/24 10:48:38;;;;;;;4.82;2.42;;;;;;;;;;10446156;28;20033;-78
2022/11/24 10:53:39;;;;;;;8.90;2.60;;;;;;;;;;10436213;28;20752;-81
2022/11/24 10:58:41;;;;;;;7.20;3.15;;;;;;;;;;10443586;28;20060;-81
2022/11/24 11:03:56;;;;;;;5.95;2.38;;;;;;;;;;10425688;28;20361;-82
2022/11/24 11:09:06;;;;;;;12.20;5.70;;;;;;;;;;10428996;28;20044;-80
2022/11/24 11:14:15;;;;;;;3.05;2.00;;;;;;;;;;10449889;28;20120;-80
2022/11/24 11:19:50;;;;;;;8.50;2.58;;;;;;;;;;10441313;28;20478;-81
2022/11/24 11:25:09;;;;;;;5.18;2.22;;;;;;;;;;10439250;28;20029;-80
2022/11/24 11:30:10;;;;;;;;;;;;;;;;;;10423436;28;20478;-81
2022/11/24 11:35:14;;;;;;;;;;;;;;;;;;10446121;28;19940;-80
2022/11/24 11:40:20;;;;;;;5.13;1.83;;;;;;;;;;10431409;28;19958;-81
2022/11/24 11:45:30;;;;;;;6.70;2.10;;;;;;;;;;10439393;28;20041;-82
2022/11/24 11:50:40;;;;;;;3.63;1.63;;;;;;;;;;10454914;28;20126;-81
2022/11/24 11:55:41;;;;;;;5.68;1.92;;;;;;;;;;10453287;28;20095;-78
2022/11/24 12:00:55;;;;;;;6.35;1.73;;;;;;;;;;10441329;28;20060;-81
2022/11/24 12:06:14;;;;;;;3.80;1.60;;;;;;;;;;10467662;28;20037;-84
2022/11/24 12:11:25;;;;;;;5.05;2.95;;;;;;;;;;10462314;28;20040;-84
2022/11/24 12:16:45;;;;;;;5.70;2.05;;;;;;;;;;10468096;28;20045;-84
2022/11/24 12:22:01;;;;;;;3.85;1.75;;;;;;;;;;10452864;28;20072;-82
2022/11/24 12:27:08;;;;;;;4.43;1.70;;;;;;;;;;10480974;28;20096;-84
2022/11/24 12:32:29;;;;;;;3.58;1.75;;;;;;;;;;10492976;28;20017;-83
2022/11/24 12:37:47;;;;;;;6.85;1.80;;;;;;;;;;10511132;28;20017;-84
2022/11/24 12:43:06;;;;;;;3.55;1.65;;;;;;;;;;10478526;28;20057;-83
2022/11/24 12:48:07;;;;;;;5.10;1.88;;;;;;;;;;10500086;22;20029;-82
2022/11/24 12:53:13;;;;;;;5.60;1.80;;;;;;;;;;10488538;28;20037;-81
2022/11/24 12:58:14;;;;;;;7.47;2.58;;;;;;;;;;11046594;22;20109;-82
2022/11/24 13:03:35;;;;;;;4.63;1.90;;;;;;;;;;10442275;28;20507;-85
2022/11/24 13:08:35;;;;;;;8.10;3.30;;;;;;;;;;11535471;22;20060;-82
2022/11/24 13:14:08;;;;;;;4.07;1.60;;;;;;;;;;10507845;22;1434378;-83
2022/11/24 13:24:37;;;;;;;4.43;1.80;;;;;;;;;;10747355;22;20070;-85
2022/11/24 13:29:39;;;;;;;5.43;1.90;;;;;;;;;;10345391;28;20045;-84
2022/11/24 13:34:39;;;;;;;3.22;1.80;;;;;;;;;;10357466;28;20062;-84
2022/11/24 13:39:47;;;;;;;6.20;1.85;;;;;;;;;;10389225;28;20065;-87
2022/11/24 13:44:58;;;;;;;6.63;1.60;;;;;;;;;;10356459;28;20052;-86
2022/11/24 13:49:59;;;;;;;7.38;1.70;;;;;;;;;;10378422;28;20444;-85
2022/11/24 13:55:20;;;;;;;3.13;1.80;;;;;;;;;;10380273;28;20112;-85
2022/11/24 14:00:36;;;;;;;6.55;2.72;;;;;;;;;;10569999;23;20053;-84
2022/11/24 14:05:52;;;;;;;3.70;1.95;;;;;;;;;;10427832;28;20045;-86
2022/11/24 14:10:56;;;;;;;7.22;1.90;;;;;;;;;;10418183;28;20041;-85
2022/11/24 14:16:03;;;;;;;4.40;2.10;;;;;;;;;;10422824;28;20057;-84
2022/11/24 14:21:24;;;;;;;5.55;2.10;;;;;;;;;;10408930;28;20044;-83
2022/11/24 14:26:32;;;;;;;4.63;2.00;;;;;;;;;;10399754;28;20592;-84
2022/11/24 14:31:35;;;;;;;7.93;2.47;;;;;;;;;;10392115;28;20053;-83
2022/11/24 14:36:39;;;;;;;5.18;2.22;;;;;;;;;;10410986;28;20093;-84
2022/11/24 14:41:41;;;;;;;6.50;2.20;;;;;;;;;;10415977;28;20095;-84
2022/11/24 14:46:45;;;;;;;5.13;2.40;;;;;;;;;;10398169;28;20030;-83
2022/11/24 14:51:50;;;;;;;5.85;2.38;;;;;;;;;;10407445;28;20117;-85
2022/11/24 14:57:03;;;;;;;5.25;2.20;;;;;;;;;;10438979;22;20061;-84
2022/11/24 15:02:23;;;;;;;5.88;2.17;;;;;;;;;;10626985;22;20041;-84
2022/11/24 15:07:25;;;;;;;5.25;2.22;;;;;;;;;;10603570;22;20106;-82
2022/11/24 15:12:38;;;;;;;9.50;4.80;;;;;;;;;;10644171;22;20027;-83
2022/11/24 15:17:56;;;;;;;7.07;2.30;;;;;;;;;;10857114;22;20029;-83
2022/11/24 15:23:17;;;;;;;6.20;2.22;;;;;;;;;;10398693;28;20032;-82
2022/11/24 15:28:23;;;;;;;2.80;1.70;;;;;;;;;;10686070;22;20034;-82
2022/11/24 15:33:27;;;;;;;3.65;2.10;;;;;;;;;;10461513;28;20022;-83
2022/11/24 15:38:30;;;;;;;9.47;2.37;;;;;;;;;;10457237;28;20026;-80
2022/11/24 15:43:39;;;;;;;6.57;2.00;;;;;;;;;;10457066;28;20041;-80
2022/11/24 15:48:40;;;;;;;6.40;2.03;;;;;;;;;;10452692;28;20040;-79
2022/11/24 15:53:46;;;;;;;4.13;2.28;;;;;;;;;;10434519;28;20056;-80
2022/11/24 15:58:47;;;;;;;6.15;2.30;;;;;;;;;;10434514;28;20046;-79
2022/11/24 16:03:52;;;;;;;4.10;2.30;;;;;;;;;;10445654;28;20029;-79
2022/11/24 16:08:56;;;;;;;4.25;2.30;;;;;;;;;;10418805;28;20041;-81
2022/11/24 16:14:03;;;;;;;3.83;2.35;;;;;;;;;;10445555;28;20041;-80
2022/11/24 16:19:04;;;;;;;5.25;2.70;;;;;;;;;;10460749;28;20045;-80
2022/11/24 16:24:05;;;;;;;6.05;2.70;;;;;;;;;;10405526;28;20049;-79
2022/11/24 16:29:07;;;;;;;7.97;3.88;;;;;;;;;;10383641;28;20369;-77
2022/11/24 16:34:11;;;;;;;6.22;4.00;;;;;;;;;;10421230;28;20034;-77
2022/11/24 16:39:11;;;;;;;9.00;5.03;;;;;;;;;;10404161;28;20049;-79
2022/11/24 16:44:15;;;;;;;8.35;5.60;;;;;;;;;;10369749;28;20599;-78
2022/11/24 16:49:15;;;;;;;8.48;4.82;;;;;;;;;;10390108;28;20121;-80
2022/11/24 16:54:17;;;;;;;8.73;5.60;;;;;;;;;;10365930;28;20050;-79
2022/11/24 16:59:20;;;;;;;8.50;5.72;;;;;;;;;;10388515;28;20045;-78
2022/11/24 17:04:21;;;;;;;9.25;6.32;;;;;;;;;;10364377;28;20113;-79
2022/11/24 17:09:23;;;;;;;10.57;6.65;;;;;;;;;;10376418;28;20045;-79
2022/11/24 17:14:23;;;;;;;12.73;7.70;;;;;;;;;;10358161;28;20096;-79
2022/11/24 17:19:25;;;;;;;12.18;7.28;;;;;;;;;;10383711;28;20535;-77
2022/11/24 17:24:26;;;;;;;10.75;7.22;;;;;;;;;;10378687;28;20100;-77
2022/11/24 17:29:28;;;;;;;10.52;7.35;;;;;;;;;;10366685;28;20041;-80
2022/11/24 17:34:29;;;;;;;13.27;6.63;;;;;;;;;;10374823;28;20056;-79
2022/11/24 17:39:29;;;;;;;13.52;7.38;;;;;;;;;;10344742;28;20060;-79
2022/11/24 17:44:30;;;;;;;11.00;7.00;;;;;;;;;;10377356;28;20033;-78
2022/11/24 17:49:32;;;;;;;11.60;7.25;;;;;;;;;;10362646;28;20280;-78
2022/11/24 17:54:33;;;;;;;9.07;7.93;;;;;;;;;;10375877;28;20514;-81
2022/11/24 17:59:34;;;;;;;12.33;9.03;;;;;;;;;;10355432;28;20042;-79
2022/11/24 18:04:34;;;;;;;12.85;8.35;;;;;;;;;;10375791;28;20296;-80
2022/11/24 18:09:35;;;;;;;15.73;9.23;;;;;;;;;;10380544;28;20041;-79
2022/11/24 18:14:36;;;;;;;14.80;8.68;;;;;;;;;;10355067;28;20312;-80
2022/11/24 18:19:36;;;;;;;13.73;9.18;;;;;;;;;;10369729;28;20521;-78
2022/11/24 18:24:38;;;;;;;15.93;9.82;;;;;;;;;;10369789;28;20076;-79
2022/11/24 18:29:38;;;;;;;15.57;10.47;;;;;;;;;;10377567;28;20164;-81
2022/11/24 18:34:38;;;;;;;17.23;11.93;;;;;;;;;;10367564;28;20327;-78
2022/11/24 18:39:42;;;;;;;19.50;11.68;;;;;;;;;;10383696;28;20126;-79
2022/11/24 18:44:43;;;;;;;;;;;;;;;;;;10354880;28;20065;-77
2022/11/24 18:49:43;;;;;;;15.70;11.02;;;;;;;;;;10387103;28;20278;-79
2022/11/24 18:54:44;;;;;;;17.45;10.77;;;;;;;;;;10361547;28;20045;-80
2022/11/24 18:59:44;;;;;;;18.27;11.95;;;;;;;;;;10391107;28;20532;-81
2022/11/24 19:04:45;;;;;;;23.40;14.13;;;;;;;;;;10386314;28;20045;-82
2022/11/24 19:09:45;;;;;;;21.58;13.43;;;;;;;;;;10400379;28;20048;-80
2022/11/24 19:14:45;;;;;;;22.93;12.77;;;;;;;;;;10406696;28;20046;-81
2022/11/24 19:19:52;;;;;;;27.52;15.52;;;;;;;;;;10392381;28;20288;-79
2022/11/24 19:24:52;;;;;;;25.25;13.88;;;;;;;;;;10393858;28;20614;-82
2022/11/24 19:29:54;;;;;;;18.55;11.25;;;;;;;;;;10369015;28;20120;-79
2022/11/24 19:34:54;;;;;;;20.00;12.40;;;;;;;;;;10389632;28;20490;-83
2022/11/24 19:39:55;;;;;;;24.10;14.53;;;;;;;;;;10399590;28;20296;-81
2022/11/24 19:44:56;;;;;;;21.42;16.20;;;;;;;;;;10400838;28;20379;-80
2022/11/24 19:49:56;;;;;;;23.20;15.73;;;;;;;;;;10396697;28;20582;-80
2022/11/24 19:54:58;;;;;;;25.73;15.13;;;;;;;;;;10425953;28;20323;-82
2022/11/24 20:00:00;;;;;;;21.63;13.02;;;;;;;;;;10418075;28;20280;-82
2022/11/24 20:05:23;;;;;;;14.25;9.85;;;;;;;;;;10342376;28;20026;-80
2022/11/24 20:10:23;;;;;;;19.60;11.10;;;;;;;;;;10340398;28;20022;-80
2022/11/24 20:15:29;;;;;;;19.10;10.88;;;;;;;;;;10346303;28;20054;-81
2022/11/24 20:20:30;;;;;;;15.65;9.27;;;;;;;;;;10340319;28;20045;-81
2022/11/24 20:25:34;;;;;;;13.05;9.75;;;;;;;;;;10336217;28;20026;-80
2022/11/24 20:30:35;;;;;;;14.45;9.05;;;;;;;;;;10330472;28;20027;-82
2022/11/24 20:35:37;;;;;;;16.17;9.48;;;;;;;;;;10327726;28;20066;-80
2022/11/24 20:40:39;;;;;;;13.40;8.73;;;;;;;;;;10331979;28;20047;-80
2022/11/24 20:45:41;;;;;;;13.90;9.70;;;;;;;;;;10342223;28;20035;-81
2022/11/24 20:50:41;;;;;;;17.52;11.13;;;;;;;;;;10340896;28;20061;-80
2022/11/24 20:55:41;;;;;;;21.40;12.17;;;;;;;;;;10383306;28;20069;-81
2022/11/24 21:00:42;;;;;;;23.00;11.25;;;;;;;;;;10379617;28;20299;-79
2022/11/24 21:05:44;;;;;;;15.55;11.40;;;;;;;;;;10390889;28;20041;-79
2022/11/24 21:10:55;;;;;;;15.98;10.43;;;;;;;;;;10396372;28;20053;-80
2022/11/24 21:15:55;;;;;;;19.13;10.07;;;;;;;;;;10403086;28;20045;-85
2022/11/24 21:20:57;;;;;;;14.55;9.93;;;;;;;;;;10396212;28;20441;-84
2022/11/24 21:25:58;;;;;;;16.80;11.77;;;;;;;;;;10403944;28;20408;-83
2022/11/24 21:31:18;;;;;;;16.27;11.40;;;;;;;;;;10405149;28;20070;-85
2022/11/24 21:36:23;;;;;;;17.05;10.82;;;;;;;;;;10416253;28;20094;-82
2022/11/24 21:41:25;;;;;;;20.13;11.45;;;;;;;;;;10461134;22;20041;-79
2022/11/24 21:46:26;;;;;;;16.25;10.40;;;;;;;;;;10519863;23;20056;-82
2022/11/24 21:51:28;;;;;;;19.58;11.38;;;;;;;;;;10423681;28;20087;-84
2022/11/24 21:56:29;;;;;;;14.52;10.70;;;;;;;;;;10406775;28;20048;-84
2022/11/24 22:01:29;;;;;;;14.90;9.88;;;;;;;;;;10441526;28;20026;-82
2022/11/24 22:06:32;;;;;;;19.05;11.40;;;;;;;;;;10417633;28;20041;-81
2022/11/24 22:11:32;;;;;;;20.60;11.27;;;;;;;;;;10417369;28;20076;-80
2022/11/24 22:16:32;;;;;;;20.53;12.53;;;;;;;;;;10438962;28;20081;-82
2022/11/24 22:21:33;;;;;;;14.77;9.23;;;;;;;;;;10392493;28;20299;-85
2022/11/24 22:26:33;;;;;;;14.57;10.13;;;;;;;;;;10384824;28;20472;-82
2022/11/24 22:31:33;;;;;;;15.32;9.77;;;;;;;;;;10350726;28;20042;-82
2022/11/24 22:36:35;;;;;;;19.30;11.23;;;;;;;;;;10390599;28;20767;-81
2022/11/24 22:41:35;;;;;;;14.68;10.20;;;;;;;;;;10383825;28;20307;-85
2022/11/24 22:46:37;;;;;;;15.02;9.30;;;;;;;;;;10394884;28;20152;-82
2022/11/24 22:51:38;;;;;;;13.65;9.75;;;;;;;;;;10404316;28;20044;-81
2022/11/24 22:56:39;;;;;;;18.00;11.05;;;;;;;;;;10387721;28;20541;-81
2022/11/24 23:01:39;;;;;;;13.43;9.00;;;;;;;;;;10364932;28;20041;-82
2022/11/24 23:06:40;;;;;;;13.48;9.02;;;;;;;;;;10381214;28;20105;-81
2022/11/24 23:11:41;;;;;;;19.77;11.45;;;;;;;;;;10385784;28;20041;-86
2022/11/24 23:16:45;;;;;;;17.42;10.93;;;;;;;;;;10368641;28;20045;-81
2022/11/24 23:21:45;;;;;;;23.10;12.10;;;;;;;;;;10373596;28;20032;-82
2022/11/24 23:26:46;;;;;;;18.23;10.87;;;;;;;;;;10385298;28;20057;-81
2022/11/24 23:31:48;;;;;;;20.58;9.95;;;;;;;;;;10386953;28;20638;-80
2022/11/24 23:36:48;;;;;;;17.08;10.43;;;;;;;;;;10405076;28;20482;-81
2022/11/24 23:41:49;;;;;;;13.75;8.93;;;;;;;;;;10416232;28;20020;-79
2022/11/24 23:46:49;;;;;;;17.48;9.32;;;;;;;;;;10422697;28;20077;-79
2022/11/24 23:51:50;;;;;;;14.35;8.98;;;;;;;;;;10415203;28;20101;-78
2022/11/24 23:56:51;;;;;;;18.48;11.18;;;;;;;;;;10392924;28;20084;-77
